sensor_id;sensor_type;location;lat;lon;timestamp;pressure;altitude;pressure_sealevel;temperature;humidity
6567;BME280;3317;43.994;22.878;2023-03-19T00:01:38;101795.06;;;6.26;58.16
6567;BME280;3317;43.994;22.878;2023-03-19T00:04:05;101773.28;;;6.16;59.03
6567;BME280;3317;43.994;22.878;2023-03-19T00:06:32;101797.66;;;6.27;59.92
6567;BME280;3317;43.994;22.878;2023-03-19T00:08:59;101780.16;;;6.20;59.71
6567;BME280;3317;43.994;22.878;2023-03-19T00:11:26;101784.13;;;6.29;59.06
6567;BME280;3317;43.994;22.878;2023-03-19T00:13:53;101787.56;;;6.31;58.25
6567;BME280;3317;43.994;22.878;2023-03-19T00:16:20;101784.75;;;6.32;57.09
6567;BME280;3317;43.994;22.878;2023-03-19T00:18:48;101779.28;;;6.34;57.61
6567;BME280;3317;43.994;22.878;2023-03-19T00:21:15;101784.59;;;6.36;57.56
6567;BME280;3317;43.994;22.878;2023-03-19T00:23:42;101791.88;;;6.33;58.20
6567;BME280;3317;43.994;22.878;2023-03-19T00:26:09;101778.53;;;6.32;58.36
6567;BME280;3317;43.994;22.878;2023-03-19T00:28:36;101784.75;;;6.32;57.84
6567;BME280;3317;43.994;22.878;2023-03-19T00:31:08;101786.69;;;6.30;57.81
6567;BME280;3317;43.994;22.878;2023-03-19T00:33:35;101790.34;;;6.29;57.67
6567;BME280;3317;43.994;22.878;2023-03-19T00:36:05;101786.03;;;6.27;57.30
6567;BME280;3317;43.994;22.878;2023-03-19T00:38:32;101788.06;;;6.23;57.32
6567;BME280;3317;43.994;22.878;2023-03-19T00:41:00;101785.56;;;6.20;57.03
6567;BME280;3317;43.994;22.878;2023-03-19T00:43:27;101784.13;;;6.14;56.35
6567;BME280;3317;43.994;22.878;2023-03-19T00:45:54;101760.69;;;6.02;56.28
6567;BME280;3317;43.994;22.878;2023-03-19T00:48:21;101787.03;;;6.11;56.22
6567;BME280;3317;43.994;22.878;2023-03-19T00:50:49;101777.34;;;6.09;56.44
6567;BME280;3317;43.994;22.878;2023-03-19T00:53:18;101779.25;;;6.06;56.22
6567;BME280;3317;43.994;22.878;2023-03-19T00:55:45;101773.00;;;6.06;56.18
6567;BME280;3317;43.994;22.878;2023-03-19T00:58:13;101775.78;;;6.04;55.21
6567;BME280;3317;43.994;22.878;2023-03-19T01:00:40;101773.84;;;6.06;55.14
6567;BME280;3317;43.994;22.878;2023-03-19T01:03:06;101773.00;;;6.06;55.28
6567;BME280;3317;43.994;22.878;2023-03-19T01:05:34;101765.41;;;5.98;54.93
6567;BME280;3317;43.994;22.878;2023-03-19T01:08:01;101781.09;;;6.06;54.95
6567;BME280;3317;43.994;22.878;2023-03-19T01:10:32;101772.50;;;5.99;55.47
6567;BME280;3317;43.994;22.878;2023-03-19T01:12:59;101779.63;;;6.00;55.24
6567;BME280;3317;43.994;22.878;2023-03-19T01:15:26;101777.97;;;5.98;55.23
6567;BME280;3317;43.994;22.878;2023-03-19T01:17:53;101773.63;;;5.95;55.24
6567;BME280;3317;43.994;22.878;2023-03-19T01:20:20;101772.88;;;5.93;54.76
6567;BME280;3317;43.994;22.878;2023-03-19T01:22:48;101764.34;;;5.86;55.10
6567;BME280;3317;43.994;22.878;2023-03-19T01:25:15;101773.09;;;5.90;55.10
6567;BME280;3317;43.994;22.878;2023-03-19T01:27:44;101765.88;;;5.90;54.65
6567;BME280;3317;43.994;22.878;2023-03-19T01:30:11;101762.31;;;5.90;54.21
6567;BME280;3317;43.994;22.878;2023-03-19T01:32:38;101757.16;;;5.87;55.25
6567;BME280;3317;43.994;22.878;2023-03-19T01:35:05;101754.66;;;5.84;55.46
6567;BME280;3317;43.994;22.878;2023-03-19T01:37:32;101756.66;;;5.80;55.52
6567;BME280;3317;43.994;22.878;2023-03-19T01:39:59;101705.88;;;5.46;55.60
6567;BME280;3317;43.994;22.878;2023-03-19T01:42:26;101751.03;;;5.70;55.89
6567;BME280;3317;43.994;22.878;2023-03-19T01:44:54;101752.34;;;5.63;55.96
6567;BME280;3317;43.994;22.878;2023-03-19T01:47:27;101748.31;;;5.56;56.40
6567;BME280;3317;43.994;22.878;2023-03-19T01:49:56;101747.94;;;5.47;56.54
6567;BME280;3317;43.994;22.878;2023-03-19T01:52:26;101751.19;;;5.38;57.05
6567;BME280;3317;43.994;22.878;2023-03-19T01:54:55;101740.63;;;5.20;57.46
6567;BME280;3317;43.994;22.878;2023-03-19T01:57:23;101744.41;;;5.02;58.00
6567;BME280;3317;43.994;22.878;2023-03-19T01:59:52;101552.94;;;3.64;58.54
6567;BME280;3317;43.994;22.878;2023-03-19T02:02:25;101744.16;;;4.76;58.88
6567;BME280;3317;43.994;22.878;2023-03-19T02:04:57;101741.59;;;4.74;58.77
6567;BME280;3317;43.994;22.878;2023-03-19T02:07:27;101723.25;;;4.67;58.12
6567;BME280;3317;43.994;22.878;2023-03-19T02:09:55;101746.75;;;4.77;57.80
6567;BME280;3317;43.994;22.878;2023-03-19T02:12:22;101752.91;;;4.79;58.16
6567;BME280;3317;43.994;22.878;2023-03-19T02:14:49;101755.50;;;4.81;58.31
6567;BME280;3317;43.994;22.878;2023-03-19T02:17:16;101753.59;;;4.83;58.13
6567;BME280;3317;43.994;22.878;2023-03-19T02:19:48;101756.09;;;4.86;57.46
6567;BME280;3317;43.994;22.878;2023-03-19T02:22:17;101756.47;;;4.80;57.34
6567;BME280;3317;43.994;22.878;2023-03-19T02:24:50;101762.22;;;4.88;57.61
6567;BME280;3317;43.994;22.878;2023-03-19T02:27:20;101756.28;;;4.83;56.80
6567;BME280;3317;43.994;22.878;2023-03-19T02:29:47;101763.81;;;4.92;56.74
6567;BME280;3317;43.994;22.878;2023-03-19T02:32:14;101762.72;;;4.95;56.78
6567;BME280;3317;43.994;22.878;2023-03-19T02:34:42;101766.28;;;4.96;56.51
6567;BME280;3317;43.994;22.878;2023-03-19T02:37:16;101767.06;;;4.98;56.31
6567;BME280;3317;43.994;22.878;2023-03-19T02:39:49;101749.50;;;4.92;56.69
6567;BME280;3317;43.994;22.878;2023-03-19T02:42:20;101761.69;;;4.98;56.57
6567;BME280;3317;43.994;22.878;2023-03-19T02:44:48;101754.47;;;4.98;56.24
6567;BME280;3317;43.994;22.878;2023-03-19T02:47:15;101755.34;;;4.99;56.26
6567;BME280;3317;43.994;22.878;2023-03-19T02:49:42;101708.84;;;4.68;55.79
6567;BME280;3317;43.994;22.878;2023-03-19T02:52:09;101756.25;;;4.99;55.94
6567;BME280;3317;43.994;22.878;2023-03-19T02:54:36;101758.03;;;4.99;55.65
6567;BME280;3317;43.994;22.878;2023-03-19T02:57:04;101753.63;;;4.98;56.20
6567;BME280;3317;43.994;22.878;2023-03-19T02:59:32;101758.13;;;4.97;56.06
6567;BME280;3317;43.994;22.878;2023-03-19T03:02:00;101760.94;;;4.96;56.04
6567;BME280;3317;43.994;22.878;2023-03-19T03:04:27;101764.56;;;4.95;55.80
6567;BME280;3317;43.994;22.878;2023-03-19T03:06:53;101765.41;;;4.95;56.09
6567;BME280;3317;43.994;22.878;2023-03-19T03:09:21;101767.34;;;4.93;55.48
6567;BME280;3317;43.994;22.878;2023-03-19T03:11:48;101761.97;;;4.93;55.35
6567;BME280;3317;43.994;22.878;2023-03-19T03:14:15;101764.66;;;4.93;55.24
6567;BME280;3317;43.994;22.878;2023-03-19T03:16:44;101759.34;;;4.91;55.20
6567;BME280;3317;43.994;22.878;2023-03-19T03:19:11;101710.25;;;4.59;54.85
6567;BME280;3317;43.994;22.878;2023-03-19T03:21:38;101761.38;;;4.88;55.10
6567;BME280;3317;43.994;22.878;2023-03-19T03:24:06;101759.94;;;4.82;55.28
6567;BME280;3317;43.994;22.878;2023-03-19T03:26:33;101758.78;;;4.86;55.27
6567;BME280;3317;43.994;22.878;2023-03-19T03:29:03;101760.88;;;4.81;55.12
6567;BME280;3317;43.994;22.878;2023-03-19T03:31:30;101764.59;;;4.78;55.09
6567;BME280;3317;43.994;22.878;2023-03-19T03:33:58;101755.88;;;4.75;55.28
6567;BME280;3317;43.994;22.878;2023-03-19T03:36:26;101748.53;;;4.62;55.50
6567;BME280;3317;43.994;22.878;2023-03-19T03:38:54;101743.16;;;4.62;55.79
6567;BME280;3317;43.994;22.878;2023-03-19T03:41:20;101754.84;;;4.61;56.20
6567;BME280;3317;43.994;22.878;2023-03-19T03:43:47;101752.34;;;4.58;56.48
6567;BME280;3317;43.994;22.878;2023-03-19T03:46:14;101760.69;;;4.54;56.58
6567;BME280;3317;43.994;22.878;2023-03-19T03:48:42;101767.25;;;4.48;57.00
6567;BME280;3317;43.994;22.878;2023-03-19T03:51:10;101760.34;;;4.44;56.82
6567;BME280;3317;43.994;22.878;2023-03-19T03:53:37;101765.91;;;4.41;56.05
6567;BME280;3317;43.994;22.878;2023-03-19T03:56:04;101771.41;;;4.37;55.83
6567;BME280;3317;43.994;22.878;2023-03-19T03:58:31;101763.91;;;4.28;55.80
6567;BME280;3317;43.994;22.878;2023-03-19T04:00:58;101775.94;;;4.37;56.31
6567;BME280;3317;43.994;22.878;2023-03-19T04:03:25;101766.25;;;4.34;56.15
6567;BME280;3317;43.994;22.878;2023-03-19T04:05:52;101776.03;;;4.35;56.39
6567;BME280;3317;43.994;22.878;2023-03-19T04:08:20;101773.34;;;4.35;56.42
6567;BME280;3317;43.994;22.878;2023-03-19T04:10:48;101775.16;;;4.35;56.33
6567;BME280;3317;43.994;22.878;2023-03-19T04:13:15;101775.25;;;4.33;56.79
6567;BME280;3317;43.994;22.878;2023-03-19T04:15:42;101773.53;;;4.32;56.13
6567;BME280;3317;43.994;22.878;2023-03-19T04:18:09;101776.19;;;4.32;55.50
6567;BME280;3317;43.994;22.878;2023-03-19T04:20:36;101777.16;;;4.31;55.66
6567;BME280;3317;43.994;22.878;2023-03-19T04:23:04;101781.75;;;4.29;55.61
6567;BME280;3317;43.994;22.878;2023-03-19T04:25:32;101778.25;;;4.27;56.02
6567;BME280;3317;43.994;22.878;2023-03-19T04:27:59;101781.13;;;4.24;56.42
6567;BME280;3317;43.994;22.878;2023-03-19T04:30:26;101781.13;;;4.24;56.60
6567;BME280;3317;43.994;22.878;2023-03-19T04:32:53;101776.13;;;4.18;57.36
6567;BME280;3317;43.994;22.878;2023-03-19T04:35:21;101777.06;;;4.17;57.95
6567;BME280;3317;43.994;22.878;2023-03-19T04:37:47;101778.09;;;4.14;57.69
6567;BME280;3317;43.994;22.878;2023-03-19T04:40:15;101773.09;;;4.08;57.69
6567;BME280;3317;43.994;22.878;2023-03-19T04:42:44;101774.91;;;4.07;57.58
6567;BME280;3317;43.994;22.878;2023-03-19T04:45:11;101775.84;;;4.06;57.46
6567;BME280;3317;43.994;22.878;2023-03-19T04:47:38;101777.66;;;4.06;56.82
6567;BME280;3317;43.994;22.878;2023-03-19T04:50:07;101758.38;;;3.99;56.47
6567;BME280;3317;43.994;22.878;2023-03-19T04:52:34;101771.44;;;4.05;56.72
6567;BME280;3317;43.994;22.878;2023-03-19T04:55:02;101776.69;;;4.07;56.61
6567;BME280;3317;43.994;22.878;2023-03-19T04:57:29;101771.44;;;4.05;56.94
6567;BME280;3317;43.994;22.878;2023-03-19T04:59:57;101763.47;;;4.04;57.17
6567;BME280;3317;43.994;22.878;2023-03-19T05:02:25;101768.00;;;4.03;57.86
6567;BME280;3317;43.994;22.878;2023-03-19T05:04:52;101763.47;;;4.04;58.42
6567;BME280;3317;43.994;22.878;2023-03-19T05:07:19;101708.25;;;3.67;58.67
6567;BME280;3317;43.994;22.878;2023-03-19T05:09:46;101746.09;;;3.95;58.52
6567;BME280;3317;43.994;22.878;2023-03-19T05:12:13;101765.97;;;4.07;58.22
6567;BME280;3317;43.994;22.878;2023-03-19T05:14:40;101765.81;;;4.10;57.64
6567;BME280;3317;43.994;22.878;2023-03-19T05:17:09;101753.78;;;4.01;58.23
6567;BME280;3317;43.994;22.878;2023-03-19T05:19:36;101767.44;;;4.13;59.06
6567;BME280;3317;43.994;22.878;2023-03-19T05:22:04;101771.72;;;4.17;59.90
6567;BME280;3317;43.994;22.878;2023-03-19T05:24:30;101715.69;;;3.94;59.35
6567;BME280;3317;43.994;22.878;2023-03-19T05:26:58;101761.38;;;4.25;58.72
6567;BME280;3317;43.994;22.878;2023-03-19T05:29:25;101763.63;;;4.33;58.57
6567;BME280;3317;43.994;22.878;2023-03-19T05:31:53;101748.66;;;4.29;58.43
6567;BME280;3317;43.994;22.878;2023-03-19T05:34:21;101766.81;;;4.40;58.98
6567;BME280;3317;43.994;22.878;2023-03-19T05:36:48;101770.13;;;4.45;58.88
6567;BME280;3317;43.994;22.878;2023-03-19T05:39:16;101770.91;;;4.47;59.46
6567;BME280;3317;43.994;22.878;2023-03-19T05:41:44;101776.97;;;4.50;59.69
6567;BME280;3317;43.994;22.878;2023-03-19T05:44:10;101781.97;;;4.57;60.10
6567;BME280;3317;43.994;22.878;2023-03-19T05:46:37;101781.63;;;4.63;60.60
6567;BME280;3317;43.994;22.878;2023-03-19T05:49:04;101775.69;;;4.72;60.10
6567;BME280;3317;43.994;22.878;2023-03-19T05:51:33;101781.31;;;4.84;60.41
6567;BME280;3317;43.994;22.878;2023-03-19T05:54:00;101783.66;;;4.90;60.12
6567;BME280;3317;43.994;22.878;2023-03-19T05:56:27;101751.44;;;4.74;59.83
6567;BME280;3317;43.994;22.878;2023-03-19T05:58:54;101795.19;;;5.06;59.74
6567;BME280;3317;43.994;22.878;2023-03-19T06:01:22;101791.84;;;5.17;59.27
6567;BME280;3317;43.994;22.878;2023-03-19T06:03:48;101791.22;;;5.28;59.35
6567;BME280;3317;43.994;22.878;2023-03-19T06:06:15;101799.00;;;5.33;58.83
6567;BME280;3317;43.994;22.878;2023-03-19T06:08:44;101801.13;;;5.42;59.52
6567;BME280;3317;43.994;22.878;2023-03-19T06:11:11;101792.41;;;5.53;58.63
6567;BME280;3317;43.994;22.878;2023-03-19T06:13:38;101795.38;;;5.63;58.43
6567;BME280;3317;43.994;22.878;2023-03-19T06:16:06;101789.72;;;5.68;58.16
6567;BME280;3317;43.994;22.878;2023-03-19T06:18:33;101797.88;;;5.81;59.55
6567;BME280;3317;43.994;22.878;2023-03-19T06:21:01;101800.97;;;5.89;59.50
6567;BME280;3317;43.994;22.878;2023-03-19T06:23:27;101807.56;;;5.98;59.45
6567;BME280;3317;43.994;22.878;2023-03-19T06:25:56;101811.03;;;6.14;60.80
6567;BME280;3317;43.994;22.878;2023-03-19T06:28:23;101760.00;;;5.98;60.61
6567;BME280;3317;43.994;22.878;2023-03-19T06:30:50;101799.19;;;6.31;60.16
6567;BME280;3317;43.994;22.878;2023-03-19T06:33:16;101810.91;;;6.30;59.69
6567;BME280;3317;43.994;22.878;2023-03-19T06:35:43;101806.28;;;6.32;59.67
6567;BME280;3317;43.994;22.878;2023-03-19T06:38:10;101806.13;;;6.36;60.25
6567;BME280;3317;43.994;22.878;2023-03-19T06:40:37;101797.06;;;6.37;60.07
6567;BME280;3317;43.994;22.878;2023-03-19T06:43:05;101810.25;;;6.41;60.47
6567;BME280;3317;43.994;22.878;2023-03-19T06:45:33;101805.88;;;6.53;60.27
6567;BME280;3317;43.994;22.878;2023-03-19T06:48:00;101795.84;;;6.55;60.52
6567;BME280;3317;43.994;22.878;2023-03-19T06:50:27;101797.81;;;6.66;60.36
6567;BME280;3317;43.994;22.878;2023-03-19T06:52:54;101802.75;;;6.87;60.46
6567;BME280;3317;43.994;22.878;2023-03-19T06:55:20;101805.13;;;6.92;60.20
6567;BME280;3317;43.994;22.878;2023-03-19T06:57:48;101799.00;;;6.89;60.35
6567;BME280;3317;43.994;22.878;2023-03-19T07:00:18;101810.00;;;6.86;60.07
6567;BME280;3317;43.994;22.878;2023-03-19T07:02:45;101813.97;;;6.81;60.80
6567;BME280;3317;43.994;22.878;2023-03-19T07:05:12;101811.72;;;6.87;60.87
6567;BME280;3317;43.994;22.878;2023-03-19T07:07:39;101808.81;;;6.90;61.25
6567;BME280;3317;43.994;22.878;2023-03-19T07:10:06;101811.00;;;7.11;60.86
6567;BME280;3317;43.994;22.878;2023-03-19T07:12:34;101769.28;;;7.04;60.91
6567;BME280;3317;43.994;22.878;2023-03-19T07:15:01;101807.69;;;7.46;60.11
6567;BME280;3317;43.994;22.878;2023-03-19T07:17:30;101801.03;;;7.65;60.62
6567;BME280;3317;43.994;22.878;2023-03-19T07:19:57;101787.84;;;7.60;60.24
6567;BME280;3317;43.994;22.878;2023-03-19T07:22:24;101797.34;;;7.79;60.28
6567;BME280;3317;43.994;22.878;2023-03-19T07:24:51;101799.06;;;7.93;60.54
6567;BME280;3317;43.994;22.878;2023-03-19T07:27:18;101802.69;;;8.18;60.03
6567;BME280;3317;43.994;22.878;2023-03-19T07:29:45;101801.19;;;8.51;60.26
6567;BME280;3317;43.994;22.878;2023-03-19T07:32:13;101809.31;;;8.76;59.61
6567;BME280;3317;43.994;22.878;2023-03-19T07:34:41;101807.84;;;9.07;58.91
6567;BME280;3317;43.994;22.878;2023-03-19T07:37:08;101798.03;;;9.29;57.65
6567;BME280;3317;43.994;22.878;2023-03-19T07:39:35;101796.63;;;9.48;57.16
6567;BME280;3317;43.994;22.878;2023-03-19T07:42:02;101807.06;;;9.64;57.12
6567;BME280;3317;43.994;22.878;2023-03-19T07:44:29;101797.75;;;9.91;56.71
6567;BME280;3317;43.994;22.878;2023-03-19T07:46:56;101796.38;;;10.08;55.01
6567;BME280;3317;43.994;22.878;2023-03-19T07:49:23;101796.88;;;10.13;53.73
6567;BME280;3317;43.994;22.878;2023-03-19T07:51:51;101797.34;;;10.29;54.41
6567;BME280;3317;43.994;22.878;2023-03-19T07:54:18;101788.97;;;10.44;54.08
6567;BME280;3317;43.994;22.878;2023-03-19T07:56:45;101791.28;;;10.49;53.05
6567;BME280;3317;43.994;22.878;2023-03-19T07:59:12;101787.72;;;10.48;52.06
6567;BME280;3317;43.994;22.878;2023-03-19T08:01:39;101789.81;;;10.56;51.87
6567;BME280;3317;43.994;22.878;2023-03-19T08:04:06;101792.78;;;10.74;52.79
6567;BME280;3317;43.994;22.878;2023-03-19T08:06:33;101785.22;;;10.89;51.98
6567;BME280;3317;43.994;22.878;2023-03-19T08:09:02;101797.13;;;10.98;50.28
6567;BME280;3317;43.994;22.878;2023-03-19T08:11:29;101788.94;;;11.09;49.31
6567;BME280;3317;43.994;22.878;2023-03-19T08:13:56;101738.66;;;10.63;47.65
6567;BME280;3317;43.994;22.878;2023-03-19T08:16:23;101785.72;;;10.94;47.84
6567;BME280;3317;43.994;22.878;2023-03-19T08:18:50;101736.13;;;10.71;48.09
6567;BME280;3317;43.994;22.878;2023-03-19T08:21:17;101804.13;;;11.12;47.93
6567;BME280;3317;43.994;22.878;2023-03-19T08:23:44;101788.44;;;11.16;48.45
6567;BME280;3317;43.994;22.878;2023-03-19T08:26:13;101788.28;;;11.17;48.52
6567;BME280;3317;43.994;22.878;2023-03-19T08:28:40;101789.47;;;11.46;49.56
6567;BME280;3317;43.994;22.878;2023-03-19T08:31:08;101779.09;;;11.82;49.56
6567;BME280;3317;43.994;22.878;2023-03-19T08:33:36;101794.38;;;12.14;49.74
6567;BME280;3317;43.994;22.878;2023-03-19T08:36:06;101730.09;;;11.93;47.69
6567;BME280;3317;43.994;22.878;2023-03-19T08:38:33;101784.00;;;12.39;45.66
6567;BME280;3317;43.994;22.878;2023-03-19T08:41:00;101790.63;;;12.66;45.71
6567;BME280;3317;43.994;22.878;2023-03-19T08:43:31;101792.78;;;12.92;46.93
6567;BME280;3317;43.994;22.878;2023-03-19T08:45:59;101778.00;;;13.04;45.34
6567;BME280;3317;43.994;22.878;2023-03-19T08:48:26;101769.28;;;13.10;43.41
6567;BME280;3317;43.994;22.878;2023-03-19T08:50:54;101786.72;;;13.37;44.65
6567;BME280;3317;43.994;22.878;2023-03-19T08:53:21;101778.41;;;13.49;43.60
6567;BME280;3317;43.994;22.878;2023-03-19T08:55:52;101784.09;;;13.65;43.13
6567;BME280;3317;43.994;22.878;2023-03-19T08:58:19;101782.84;;;13.88;44.25
6567;BME280;3317;43.994;22.878;2023-03-19T09:00:48;101774.41;;;14.09;43.48
6567;BME280;3317;43.994;22.878;2023-03-19T09:03:16;101782.31;;;14.12;41.82
6567;BME280;3317;43.994;22.878;2023-03-19T09:05:43;101752.09;;;13.96;40.47
6567;BME280;3317;43.994;22.878;2023-03-19T09:08:11;101761.97;;;14.06;42.11
6567;BME280;3317;43.994;22.878;2023-03-19T09:10:38;101757.16;;;14.18;40.82
6567;BME280;3317;43.994;22.878;2023-03-19T09:13:05;101758.09;;;14.27;40.70
6567;BME280;3317;43.994;22.878;2023-03-19T09:15:32;101760.66;;;14.11;40.45
6567;BME280;3317;43.994;22.878;2023-03-19T09:18:00;101755.19;;;14.11;40.91
6567;BME280;3317;43.994;22.878;2023-03-19T09:20:27;101758.75;;;14.39;43.92
6567;BME280;3317;43.994;22.878;2023-03-19T09:22:54;101752.16;;;14.78;42.43
6567;BME280;3317;43.994;22.878;2023-03-19T09:25:21;101744.06;;;14.86;40.20
6567;BME280;3317;43.994;22.878;2023-03-19T09:27:48;101742.94;;;14.61;38.80
6567;BME280;3317;43.994;22.878;2023-03-19T09:30:15;101751.19;;;14.51;39.78
6567;BME280;3317;43.994;22.878;2023-03-19T09:32:42;101751.19;;;14.51;39.82
6567;BME280;3317;43.994;22.878;2023-03-19T09:35:10;101752.34;;;14.48;39.72
6567;BME280;3317;43.994;22.878;2023-03-19T09:37:37;101748.13;;;14.36;40.17
6567;BME280;3317;43.994;22.878;2023-03-19T09:40:05;101743.22;;;14.21;40.17
6567;BME280;3317;43.994;22.878;2023-03-19T09:42:51;101747.84;;;14.11;42.44
6567;BME280;3317;43.994;22.878;2023-03-19T09:45:19;101730.34;;;14.14;46.59
6567;BME280;3317;43.994;22.878;2023-03-19T09:47:49;101739.50;;;14.59;47.97
6567;BME280;3317;43.994;22.878;2023-03-19T09:50:21;101746.00;;;14.94;45.97
6567;BME280;3317;43.994;22.878;2023-03-19T09:52:52;101741.06;;;15.24;43.07
6567;BME280;3317;43.994;22.878;2023-03-19T09:55:32;101732.72;;;15.52;42.93
6567;BME280;3317;43.994;22.878;2023-03-19T09:58:01;101728.72;;;15.73;41.61
6567;BME280;3317;43.994;22.878;2023-03-19T10:00:36;101723.06;;;15.66;38.83
6567;BME280;3317;43.994;22.878;2023-03-19T10:03:14;101718.31;;;15.76;39.42
6567;BME280;3317;43.994;22.878;2023-03-19T10:05:50;101707.25;;;15.86;39.06
6567;BME280;3317;43.994;22.878;2023-03-19T10:08:36;101709.06;;;16.12;39.95
6567;BME280;3317;43.994;22.878;2023-03-19T10:11:29;101711.19;;;16.52;40.61
6567;BME280;3317;43.994;22.878;2023-03-19T10:14:11;101708.09;;;16.38;37.05
6567;BME280;3317;43.994;22.878;2023-03-19T10:16:48;101691.34;;;16.41;39.17
6567;BME280;3317;43.994;22.878;2023-03-19T10:19:21;101698.03;;;16.39;36.69
6567;BME280;3317;43.994;22.878;2023-03-19T10:21:54;101695.75;;;16.17;36.89
6567;BME280;3317;43.994;22.878;2023-03-19T10:24:26;101689.75;;;16.05;38.23
6567;BME280;3317;43.994;22.878;2023-03-19T10:26:58;101682.78;;;16.28;38.29
6567;BME280;3317;43.994;22.878;2023-03-19T10:29:27;101684.88;;;16.59;38.84
6567;BME280;3317;43.994;22.878;2023-03-19T10:31:59;101684.66;;;16.85;38.86
6567;BME280;3317;43.994;22.878;2023-03-19T10:34:30;101693.03;;;17.17;38.05
6567;BME280;3317;43.994;22.878;2023-03-19T10:37:01;101687.88;;;17.39;37.53
6567;BME280;3317;43.994;22.878;2023-03-19T10:39:30;101673.56;;;17.12;36.32
6567;BME280;3317;43.994;22.878;2023-03-19T10:42:07;101684.34;;;16.80;36.54
6567;BME280;3317;43.994;22.878;2023-03-19T10:44:44;101670.66;;;16.64;37.25
6567;BME280;3317;43.994;22.878;2023-03-19T10:47:15;101669.44;;;16.83;38.95
6567;BME280;3317;43.994;22.878;2023-03-19T10:49:44;101666.69;;;17.08;38.28
6567;BME280;3317;43.994;22.878;2023-03-19T10:52:22;101661.03;;;17.17;38.22
6567;BME280;3317;43.994;22.878;2023-03-19T10:54:54;101652.00;;;17.00;37.04
6567;BME280;3317;43.994;22.878;2023-03-19T10:57:24;101637.25;;;16.93;37.75
6567;BME280;3317;43.994;22.878;2023-03-19T10:59:52;101641.00;;;17.25;38.74
6567;BME280;3317;43.994;22.878;2023-03-19T11:02:20;101638.72;;;17.37;37.14
6567;BME280;3317;43.994;22.878;2023-03-19T11:05:05;101649.78;;;17.04;36.88
6567;BME280;3317;43.994;22.878;2023-03-19T11:07:35;101622.28;;;16.47;37.54
6567;BME280;3317;43.994;22.878;2023-03-19T11:10:03;101634.41;;;16.37;38.03
6567;BME280;3317;43.994;22.878;2023-03-19T11:12:32;101623.28;;;16.22;39.02
6567;BME280;3317;43.994;22.878;2023-03-19T11:15:02;101617.66;;;16.15;38.97
6567;BME280;3317;43.994;22.878;2023-03-19T11:17:37;101616.78;;;16.14;39.29
6567;BME280;3317;43.994;22.878;2023-03-19T11:20:19;101617.81;;;16.30;39.62
6567;BME280;3317;43.994;22.878;2023-03-19T11:22:50;101606.38;;;16.51;39.73
6567;BME280;3317;43.994;22.878;2023-03-19T11:25:24;101607.19;;;16.68;38.91
6567;BME280;3317;43.994;22.878;2023-03-19T11:27:57;101590.41;;;16.88;39.51
6567;BME280;3317;43.994;22.878;2023-03-19T11:30:28;101607.16;;;17.10;38.61
6567;BME280;3317;43.994;22.878;2023-03-19T11:35:54;101594.38;;;16.77;38.26
6567;BME280;3317;43.994;22.878;2023-03-19T11:38:33;101591.47;;;16.62;38.61
6567;BME280;3317;43.994;22.878;2023-03-19T11:41:13;101580.56;;;16.45;38.92
6567;BME280;3317;43.994;22.878;2023-03-19T11:43:49;101564.13;;;16.54;39.21
6567;BME280;3317;43.994;22.878;2023-03-19T11:46:33;101566.50;;;16.57;38.95
6567;BME280;3317;43.994;22.878;2023-03-19T11:49:28;101560.50;;;16.61;38.34
6567;BME280;3317;43.994;22.878;2023-03-19T11:52:03;101564.78;;;16.72;38.91
6567;BME280;3317;43.994;22.878;2023-03-19T11:54:43;101553.53;;;16.51;38.67
6567;BME280;3317;43.994;22.878;2023-03-19T11:57:14;101556.44;;;16.57;39.43
6567;BME280;3317;43.994;22.878;2023-03-19T11:59:52;101553.53;;;16.42;39.07
6567;BME280;3317;43.994;22.878;2023-03-19T12:02:44;101551.16;;;16.47;38.82
6567;BME280;3317;43.994;22.878;2023-03-19T12:05:20;101544.28;;;16.60;39.17
6567;BME280;3317;43.994;22.878;2023-03-19T12:07:57;101535.88;;;16.78;39.04
6567;BME280;3317;43.994;22.878;2023-03-19T12:10:37;101543.41;;;16.59;38.70
6567;BME280;3317;43.994;22.878;2023-03-19T12:13:15;101533.03;;;16.38;39.19
6567;BME280;3317;43.994;22.878;2023-03-19T12:15:54;101461.63;;;15.91;39.26
6567;BME280;3317;43.994;22.878;2023-03-19T12:18:42;101523.97;;;16.21;40.09
6567;BME280;3317;43.994;22.878;2023-03-19T12:21:19;101529.63;;;16.36;40.71
6567;BME280;3317;43.994;22.878;2023-03-19T12:24:00;101518.16;;;16.41;39.91
6567;BME280;3317;43.994;22.878;2023-03-19T12:26:38;101500.72;;;16.33;39.77
6567;BME280;3317;43.994;22.878;2023-03-19T12:29:17;101506.72;;;16.21;40.20
6567;BME280;3317;43.994;22.878;2023-03-19T12:31:59;101499.38;;;16.21;40.12
6567;BME280;3317;43.994;22.878;2023-03-19T12:34:34;101495.09;;;16.27;40.16
6567;BME280;3317;43.994;22.878;2023-03-19T12:37:14;101481.88;;;16.55;40.66
6567;BME280;3317;43.994;22.878;2023-03-19T12:39:51;101470.34;;;16.68;39.98
6567;BME280;3317;43.994;22.878;2023-03-19T12:42:27;101485.41;;;16.72;39.38
6567;BME280;3317;43.994;22.878;2023-03-19T12:44:56;101446.53;;;16.29;39.38
6567;BME280;3317;43.994;22.878;2023-03-19T12:47:27;101481.16;;;16.61;40.20
6567;BME280;3317;43.994;22.878;2023-03-19T12:49:59;101476.91;;;16.59;39.87
6567;BME280;3317;43.994;22.878;2023-03-19T12:52:32;101467.63;;;16.68;40.22
6567;BME280;3317;43.994;22.878;2023-03-19T12:55:03;101464.56;;;16.71;40.21
6567;BME280;3317;43.994;22.878;2023-03-19T12:57:38;101461.47;;;16.66;40.00
6567;BME280;3317;43.994;22.878;2023-03-19T13:00:14;101456.59;;;16.37;40.15
6567;BME280;3317;43.994;22.878;2023-03-19T13:02:49;101454.72;;;16.37;41.11
6567;BME280;3317;43.994;22.878;2023-03-19T13:05:23;101464.66;;;16.30;40.91
6567;BME280;3317;43.994;22.878;2023-03-19T13:07:58;101453.22;;;16.26;41.61
6567;BME280;3317;43.994;22.878;2023-03-19T13:10:29;101454.59;;;16.22;41.45
6567;BME280;3317;43.994;22.878;2023-03-19T13:12:59;101454.28;;;16.00;41.46
6567;BME280;3317;43.994;22.878;2023-03-19T13:15:35;101448.63;;;15.85;41.83
6567;BME280;3317;43.994;22.878;2023-03-19T13:18:13;101439.94;;;15.73;42.37
6567;BME280;3317;43.994;22.878;2023-03-19T13:20:52;101437.00;;;15.75;42.83
6567;BME280;3317;43.994;22.878;2023-03-19T13:23:25;101432.91;;;15.62;42.43